Time;durP1;ratioP1;P1;durP2;ratioP2;P2;SDS_P1;SDS_P2;PMS_P1;PMS_P2;Temp;Humidity;BMP_temperature;BMP_pressure;BME280_temperature;BME280_humidity;BME280_pressure;Samples;Min_cycle;Max_cycle;Signal;HPM_P1;HPM_P2
2023/02/01 00:01:36;;;;;;;17.17;7.83;;;;;;;;;;5045541;28;20453;-76
2023/02/01 00:04:03;;;;;;;28.53;9.43;;;;;;;;;;5042858;28;20042;-77
2023/02/01 00:06:29;;;;;;;33.27;9.63;;;;;;;;;;5041342;28;20034;-76
2023/02/01 00:08:55;;;;;;;22.60;9.23;;;;;;;;;;5026172;28;20048;-77
2023/02/01 00:11:21;;;;;;;18.23;8.97;;;;;;;;;;5043193;28;20025;-77
2023/02/01 00:13:49;;;;;;;26.37;8.67;;;;;;;;;;5026266;28;20147;-78
2023/02/01 00:16:19;;;;;;;25.47;8.87;;;;;;;;;;5043212;28;20029;-77
2023/02/01 00:18:46;;;;;;;23.60;8.10;;;;;;;;;;5038318;28;20025;-77
2023/02/01 00:21:13;;;;;;;24.13;7.97;;;;;;;;;;5041385;28;20037;-75
2023/02/01 00:23:41;;;;;;;24.80;7.57;;;;;;;;;;5042482;28;20064;-77
2023/02/01 00:26:11;;;;;;;19.77;7.27;;;;;;;;;;5040637;28;20355;-76
2023/02/01 00:28:37;;;;;;;27.90;6.80;;;;;;;;;;5042164;28;20096;-77
2023/02/01 00:31:04;;;;;;;20.07;6.93;;;;;;;;;;5043509;28;20021;-75
2023/02/01 00:33:30;;;;;;;16.87;6.43;;;;;;;;;;5039750;28;20037;-75
2023/02/01 00:35:59;;;;;;;18.13;6.13;;;;;;;;;;5041427;28;20033;-76
2023/02/01 00:38:26;;;;;;;20.00;6.23;;;;;;;;;;5042431;28;20031;-77
2023/02/01 00:40:52;;;;;;;21.47;6.70;;;;;;;;;;5041717;28;20036;-76
2023/02/01 00:43:17;;;;;;;19.60;5.40;;;;;;;;;;5024715;28;20034;-77
2023/02/01 00:45:45;;;;;;;14.97;6.60;;;;;;;;;;5040755;28;20038;-77
2023/02/01 00:48:11;;;;;;;20.23;5.53;;;;;;;;;;5040790;28;20359;-78
2023/02/01 00:50:41;;;;;;;23.67;6.97;;;;;;;;;;5041398;28;20029;-76
2023/02/01 00:53:07;;;;;;;17.30;4.83;;;;;;;;;;5041649;28;20037;-76
2023/02/01 00:55:33;;;;;;;18.83;5.07;;;;;;;;;;5042431;28;20029;-77
2023/02/01 00:57:59;;;;;;;23.73;5.80;;;;;;;;;;5040213;28;20043;-76
2023/02/01 01:00:25;;;;;;;21.30;4.83;;;;;;;;;;5041933;28;20079;-77
2023/02/01 01:02:54;;;;;;;24.20;6.10;;;;;;;;;;5044314;28;20036;-76
2023/02/01 01:05:20;;;;;;;18.07;5.33;;;;;;;;;;5041642;28;20037;-76
2023/02/01 01:07:46;;;;;;;20.77;5.20;;;;;;;;;;5026606;28;20022;-77
2023/02/01 01:10:12;;;;;;;15.63;4.13;;;;;;;;;;5041477;28;21789;-77
2023/02/01 01:12:38;;;;;;;21.80;4.37;;;;;;;;;;5042486;28;20167;-76
2023/02/01 01:15:04;;;;;;;22.13;4.77;;;;;;;;;;5041766;28;20025;-76
2023/02/01 01:17:31;;;;;;;20.67;4.40;;;;;;;;;;5042109;28;20037;-77
2023/02/01 01:19:57;;;;;;;23.00;4.30;;;;;;;;;;5041498;28;20065;-76
2023/02/01 01:22:26;;;;;;;17.47;4.03;;;;;;;;;;5025844;28;20061;-76
2023/02/01 01:24:52;;;;;;;27.33;5.03;;;;;;;;;;5038967;28;20095;-76
2023/02/01 01:27:23;;;;;;;16.80;4.13;;;;;;;;;;5041156;28;20041;-75
2023/02/01 01:29:50;;;;;;;14.30;5.10;;;;;;;;;;5042577;28;20128;-76
2023/02/01 01:32:16;;;;;;;12.30;3.20;;;;;;;;;;5040481;28;20021;-76
2023/02/01 01:34:44;;;;;;;22.30;5.03;;;;;;;;;;5043038;28;20032;-75
2023/02/01 01:37:10;;;;;;;18.50;4.83;;;;;;;;;;5039115;28;20060;-77
2023/02/01 01:39:36;;;;;;;17.67;4.33;;;;;;;;;;5041932;28;20549;-77
2023/02/01 01:42:02;;;;;;;23.53;3.83;;;;;;;;;;5041169;28;20041;-75
2023/02/01 01:44:47;;;;;;;18.73;3.33;;;;;;;;;;5039124;28;20037;-77
2023/02/01 01:47:14;;;;;;;15.77;4.37;;;;;;;;;;5043147;28;20025;-76
2023/02/01 01:49:40;;;;;;;16.00;3.70;;;;;;;;;;5044364;28;20478;-77
2023/02/01 01:52:06;;;;;;;25.53;4.03;;;;;;;;;;5044418;28;20035;-76
2023/02/01 01:54:35;;;;;;;23.57;4.90;;;;;;;;;;5048381;28;20120;-76
2023/02/01 01:57:04;;;;;;;16.07;4.30;;;;;;;;;;5043719;28;20047;-76
2023/02/01 01:59:31;;;;;;;17.40;4.90;;;;;;;;;;5048535;28;20065;-75
2023/02/01 02:01:58;;;;;;;16.67;4.30;;;;;;;;;;5029763;28;20029;-74
2023/02/01 02:04:24;;;;;;;17.47;3.73;;;;;;;;;;5043610;28;20992;-74
2023/02/01 02:06:50;;;;;;;18.60;4.73;;;;;;;;;;5046800;28;20042;-76
2023/02/01 02:09:16;;;;;;;16.30;4.47;;;;;;;;;;5046526;28;20030;-76
2023/02/01 02:11:42;;;;;;;20.00;3.23;;;;;;;;;;5043181;28;20034;-76
2023/02/01 02:14:10;;;;;;;17.17;3.57;;;;;;;;;;5045705;28;20030;-75
2023/02/01 02:16:51;;;;;;;18.50;3.90;;;;;;;;;;5044822;28;20072;-76
2023/02/01 02:19:26;;;;;;;26.93;4.73;;;;;;;;;;5027685;28;20086;-75
2023/02/01 02:21:58;;;;;;;15.50;3.17;;;;;;;;;;5043657;28;20137;-76
2023/02/01 02:24:24;;;;;;;17.85;3.97;;;;;;;;;;5044780;28;20670;-75
2023/02/01 02:27:05;;;;;;;21.97;4.00;;;;;;;;;;5042733;28;20025;-75
2023/02/01 02:29:31;;;;;;;24.13;4.57;;;;;;;;;;5042883;28;20029;-77
2023/02/01 02:32:16;;;;;;;20.90;3.90;;;;;;;;;;5041515;28;20032;-76
2023/02/01 02:34:49;;;;;;;23.40;4.67;;;;;;;;;;5043380;28;20025;-76
2023/02/01 02:37:34;;;;;;;26.77;4.97;;;;;;;;;;5044097;28;20022;-76
2023/02/01 02:40:21;;;;;;;23.70;4.90;;;;;;;;;;5044214;28;20666;-76
2023/02/01 02:48:39;;;;;;;24.43;4.53;;;;;;;;;;5053944;28;20120;-77
2023/02/01 03:05:08;;;;;;;27.07;6.63;;;;;;;;;;5024137;28;20472;-77
2023/02/01 03:07:54;;;;;;;27.77;6.30;;;;;;;;;;5035945;28;20025;-77
2023/02/01 03:10:40;;;;;;;26.30;5.87;;;;;;;;;;5038383;28;20029;-77
2023/02/01 03:13:15;;;;;;;24.03;6.23;;;;;;;;;;5052419;28;20029;-76
2023/02/01 03:15:46;;;;;;;23.30;5.73;;;;;;;;;;5036022;28;20033;-77
2023/02/01 03:18:18;;;;;;;22.33;6.27;;;;;;;;;;5039026;28;20362;-77
2023/02/01 03:20:47;;;;;;;23.07;6.17;;;;;;;;;;5035378;28;20565;-77
2023/02/01 03:23:15;;;;;;;23.40;5.13;;;;;;;;;;5036561;28;20112;-77
2023/02/01 03:25:42;;;;;;;21.00;6.30;;;;;;;;;;5035517;28;20029;-77
2023/02/01 03:28:09;;;;;;;20.60;5.30;;;;;;;;;;5035545;28;20029;-78
2023/02/01 03:30:37;;;;;;;30.03;7.43;;;;;;;;;;5035280;28;20021;-77
2023/02/01 03:33:07;;;;;;;19.07;4.93;;;;;;;;;;5041656;28;20048;-77
2023/02/01 03:35:38;;;;;;;22.90;5.57;;;;;;;;;;5070222;28;20483;-77
2023/02/01 03:38:10;;;;;;;22.55;4.55;;;;;;;;;;5035475;28;20033;-77
2023/02/01 03:40:37;;;;;;;16.80;5.43;;;;;;;;;;5035393;28;20034;-76
2023/02/01 03:43:07;;;;;;;19.97;4.97;;;;;;;;;;5035307;28;20346;-77
2023/02/01 03:45:40;;;;;;;22.27;5.03;;;;;;;;;;5032007;28;20040;-76
2023/02/01 03:48:07;;;;;;;24.57;6.40;;;;;;;;;;5026353;28;20666;-76
2023/02/01 03:50:33;;;;;;;18.97;5.17;;;;;;;;;;5034973;28;20021;-77
2023/02/01 03:53:03;;;;;;;25.73;7.20;;;;;;;;;;5035061;28;20025;-77
2023/02/01 03:55:30;;;;;;;18.97;4.30;;;;;;;;;;5035185;28;20025;-76
2023/02/01 03:58:03;;;;;;;20.47;4.97;;;;;;;;;;5034689;28;20021;-77
2023/02/01 04:00:29;;;;;;;18.80;5.73;;;;;;;;;;5034785;28;20415;-77
2023/02/01 04:02:55;;;;;;;23.67;5.77;;;;;;;;;;5036061;28;20036;-77
2023/02/01 04:05:21;;;;;;;17.90;4.70;;;;;;;;;;5071754;28;20077;-76
2023/02/01 04:07:47;;;;;;;30.87;6.90;;;;;;;;;;5056061;28;20450;-76
2023/02/01 04:10:14;;;;;;;27.40;5.60;;;;;;;;;;5034631;28;20029;-77
2023/02/01 04:12:40;;;;;;;23.47;5.73;;;;;;;;;;5036935;28;20040;-76
2023/02/01 04:15:06;;;;;;;19.93;5.60;;;;;;;;;;5034551;28;20026;-76
2023/02/01 04:17:32;;;;;;;22.87;4.70;;;;;;;;;;5034514;28;20033;-76
2023/02/01 04:19:58;;;;;;;21.47;5.43;;;;;;;;;;5026794;28;20040;-77
2023/02/01 04:22:24;;;;;;;26.43;5.37;;;;;;;;;;5029609;28;20048;-76
2023/02/01 04:24:51;;;;;;;27.03;5.50;;;;;;;;;;5042836;28;20029;-77
2023/02/01 04:27:17;;;;;;;34.03;6.43;;;;;;;;;;5043791;28;20111;-76
2023/02/01 04:29:44;;;;;;;21.53;5.97;;;;;;;;;;5043431;28;20037;-76
2023/02/01 04:32:11;;;;;;;24.50;4.83;;;;;;;;;;5027014;28;20025;-75
2023/02/01 04:34:37;;;;;;;27.00;5.77;;;;;;;;;;5041356;28;20052;-75
2023/02/01 04:37:03;;;;;;;27.97;5.23;;;;;;;;;;5040999;28;21622;-75
2023/02/01 04:39:29;;;;;;;11.43;3.97;;;;;;;;;;5041504;28;20036;-74
2023/02/01 04:41:55;;;;;;;24.67;5.07;;;;;;;;;;5041909;28;20465;-76
2023/02/01 04:44:21;;;;;;;15.57;4.87;;;;;;;;;;5023836;28;20045;-75
2023/02/01 04:46:49;;;;;;;29.63;5.57;;;;;;;;;;5041819;28;20038;-76
2023/02/01 04:49:15;;;;;;;20.80;5.27;;;;;;;;;;5041432;28;20040;-76
2023/02/01 04:51:42;;;;;;;18.73;4.30;;;;;;;;;;5041802;28;20029;-76
2023/02/01 04:54:08;;;;;;;21.80;5.33;;;;;;;;;;5026847;28;20029;-76
2023/02/01 04:56:37;;;;;;;17.43;4.47;;;;;;;;;;5041315;28;20033;-76
2023/02/01 04:59:04;;;;;;;18.53;4.90;;;;;;;;;;5025322;28;20036;-76
2023/02/01 05:01:30;;;;;;;23.63;4.70;;;;;;;;;;5041735;28;20361;-75
2023/02/01 05:03:56;;;;;;;17.53;3.67;;;;;;;;;;5041231;28;20148;-75
2023/02/01 05:06:22;;;;;;;21.73;5.90;;;;;;;;;;5041429;28;20076;-76
2023/02/01 05:08:50;;;;;;;25.33;6.27;;;;;;;;;;5039166;28;20044;-77
2023/02/01 05:14:05;;;;;;;19.53;4.40;;;;;;;;;;5027007;28;20443;-76
2023/02/01 05:16:31;;;;;;;24.33;4.33;;;;;;;;;;5042783;28;20443;-77
2023/02/01 05:18:57;;;;;;;31.50;5.60;;;;;;;;;;5040769;28;20141;-77
2023/02/01 05:21:23;;;;;;;22.43;4.47;;;;;;;;;;5032223;28;20053;-76
2023/02/01 05:26:36;;;;;;;24.63;4.43;;;;;;;;;;5029551;28;20404;-77
2023/02/01 05:29:02;;;;;;;24.10;4.60;;;;;;;;;;5044400;28;20049;-77
2023/02/01 05:31:28;;;;;;;19.07;4.20;;;;;;;;;;5028088;28;20029;-77
2023/02/01 05:33:54;;;;;;;22.60;4.23;;;;;;;;;;5046093;28;20056;-76
2023/02/01 05:36:20;;;;;;;21.57;4.40;;;;;;;;;;5043703;28;20450;-77
2023/02/01 05:38:46;;;;;;;26.67;3.67;;;;;;;;;;5028797;28;20029;-77
2023/02/01 05:41:12;;;;;;;18.30;3.70;;;;;;;;;;5046809;28;20120;-77
2023/02/01 05:43:38;;;;;;;29.50;4.97;;;;;;;;;;5043115;28;20333;-76
2023/02/01 05:46:04;;;;;;;26.73;4.23;;;;;;;;;;5042690;28;20030;-76
2023/02/01 05:48:30;;;;;;;22.43;4.20;;;;;;;;;;5029677;28;20052;-76
2023/02/01 05:50:56;;;;;;;16.97;4.03;;;;;;;;;;5044339;28;20025;-77
2023/02/01 05:53:22;;;;;;;21.23;4.63;;;;;;;;;;5043547;28;20513;-76
2023/02/01 05:55:48;;;;;;;18.77;4.30;;;;;;;;;;5044980;28;20402;-77
2023/02/01 05:58:14;;;;;;;27.00;4.40;;;;;;;;;;5041633;28;20093;-76
2023/02/01 06:00:40;;;;;;;24.77;4.20;;;;;;;;;;5042231;28;20056;-76
2023/02/01 06:03:06;;;;;;;26.93;4.70;;;;;;;;;;5028453;28;20509;-77
2023/02/01 06:05:32;;;;;;;22.43;4.17;;;;;;;;;;5043804;28;20037;-76
2023/02/01 06:07:58;;;;;;;25.10;5.87;;;;;;;;;;5029369;28;20034;-75
2023/02/01 06:10:24;;;;;;;21.70;3.93;;;;;;;;;;5027801;28;21728;-77
2023/02/01 06:12:50;;;;;;;26.57;4.20;;;;;;;;;;5046573;28;20034;-77
2023/02/01 06:15:19;;;;;;;23.90;5.47;;;;;;;;;;5040551;28;20168;-76
2023/02/01 06:17:46;;;;;;;19.67;3.77;;;;;;;;;;5043364;28;20064;-77
2023/02/01 06:20:12;;;;;;;23.67;4.50;;;;;;;;;;5045506;28;20087;-76
2023/02/01 06:22:39;;;;;;;26.83;5.43;;;;;;;;;;5043699;28;20128;-76
2023/02/01 06:25:06;;;;;;;22.97;4.57;;;;;;;;;;5044955;28;20037;-76
2023/02/01 06:27:35;;;;;;;25.00;4.60;;;;;;;;;;5029346;28;20064;-77
2023/02/01 06:30:04;;;;;;;20.30;3.37;;;;;;;;;;5044982;28;20086;-77
2023/02/01 06:32:30;;;;;;;22.53;4.37;;;;;;;;;;5041998;28;20044;-78
2023/02/01 06:34:57;;;;;;;23.10;4.67;;;;;;;;;;5030596;28;20097;-77
2023/02/01 06:37:24;;;;;;;23.47;4.43;;;;;;;;;;5042096;28;20099;-77
2023/02/01 06:39:50;;;;;;;20.27;4.50;;;;;;;;;;5042213;28;20037;-77
2023/02/01 06:42:16;;;;;;;21.93;4.43;;;;;;;;;;5042282;28;20044;-76
2023/02/01 06:44:42;;;;;;;34.23;4.83;;;;;;;;;;5042368;28;20029;-76
2023/02/01 06:47:08;;;;;;;22.93;4.53;;;;;;;;;;5027908;28;20796;-76
2023/02/01 06:49:37;;;;;;;23.43;4.23;;;;;;;;;;5031675;28;20025;-76
2023/02/01 06:52:03;;;;;;;13.97;3.30;;;;;;;;;;5043396;28;20122;-77
2023/02/01 06:54:32;;;;;;;20.83;4.30;;;;;;;;;;5044931;28;20026;-77
2023/02/01 06:56:58;;;;;;;26.97;3.97;;;;;;;;;;5046977;28;20026;-78
2023/02/01 06:59:24;;;;;;;17.23;3.30;;;;;;;;;;5045021;28;20033;-77
2023/02/01 07:01:49;;;;;;;28.33;4.17;;;;;;;;;;5045415;28;20033;-78
2023/02/01 07:04:15;;;;;;;32.47;4.50;;;;;;;;;;5041159;28;20508;-77
2023/02/01 07:06:42;;;;;;;30.10;4.43;;;;;;;;;;5027123;28;20057;-76
2023/02/01 07:09:08;;;;;;;16.13;3.47;;;;;;;;;;5043139;28;20076;-76
2023/02/01 07:11:34;;;;;;;30.13;4.77;;;;;;;;;;5042393;28;20040;-77
2023/02/01 07:14:00;;;;;;;26.70;4.87;;;;;;;;;;5043303;28;20063;-78
2023/02/01 07:16:26;;;;;;;19.77;4.83;;;;;;;;;;5041550;28;20029;-75
2023/02/01 07:18:55;;;;;;;23.73;5.00;;;;;;;;;;5041435;28;20030;-76
2023/02/01 07:21:21;;;;;;;24.90;4.00;;;;;;;;;;5044201;28;20037;-77
2023/02/01 07:23:47;;;;;;;26.80;5.23;;;;;;;;;;5041895;28;20041;-76
2023/02/01 07:26:13;;;;;;;19.97;3.63;;;;;;;;;;5043404;28;20029;-76
2023/02/01 07:28:40;;;;;;;20.37;4.57;;;;;;;;;;5043008;28;20037;-77
2023/02/01 07:31:07;;;;;;;19.03;4.07;;;;;;;;;;5043193;28;20120;-76
2023/02/01 07:33:33;;;;;;;16.53;3.70;;;;;;;;;;5044156;28;20029;-76
2023/02/01 07:36:01;;;;;;;25.37;4.47;;;;;;;;;;5043116;28;20420;-75
2023/02/01 07:38:28;;;;;;;24.10;4.47;;;;;;;;;;5042997;28;20053;-77
2023/02/01 07:40:58;;;;;;;22.47;4.17;;;;;;;;;;5026481;28;20021;-76
2023/02/01 07:43:24;;;;;;;32.57;4.70;;;;;;;;;;5039408;28;20482;-75
2023/02/01 07:45:53;;;;;;;17.30;4.53;;;;;;;;;;5041455;28;20029;-76
2023/02/01 07:48:19;;;;;;;21.70;4.60;;;;;;;;;;5028006;28;20377;-75
2023/02/01 07:50:45;;;;;;;17.93;4.17;;;;;;;;;;5040683;28;20041;-77
2023/02/01 07:53:17;;;;;;;23.17;5.50;;;;;;;;;;5023602;28;20033;-75
2023/02/01 07:55:43;;;;;;;19.20;4.18;;;;;;;;;;5041055;28;20026;-77
2023/02/01 07:58:12;;;;;;;18.77;4.73;;;;;;;;;;5043835;28;20029;-78
2023/02/01 08:03:25;;;;;;;26.47;4.40;;;;;;;;;;5024445;28;20501;-78
2023/02/01 08:05:55;;;;;;;22.33;4.70;;;;;;;;;;5043621;28;20435;-77
2023/02/01 08:08:21;;;;;;;23.27;6.57;;;;;;;;;;5042087;28;20065;-75
2023/02/01 08:10:47;;;;;;;26.87;4.30;;;;;;;;;;5024676;28;20034;-76
2023/02/01 08:13:13;;;;;;;29.20;4.93;;;;;;;;;;5022946;28;20026;-78
2023/02/01 08:15:39;;;;;;;31.13;5.57;;;;;;;;;;5039024;28;20057;-78
2023/02/01 08:18:05;;;;;;;23.03;4.70;;;;;;;;;;5039997;28;20072;-77
2023/02/01 08:20:31;;;;;;;26.47;4.50;;;;;;;;;;5041924;28;20026;-75
2023/02/01 08:22:57;;;;;;;31.47;5.23;;;;;;;;;;5043322;28;20083;-77
2023/02/01 08:25:24;;;;;;;27.70;4.30;;;;;;;;;;5039600;28;20030;-77
2023/02/01 08:27:50;;;;;;;20.80;3.83;;;;;;;;;;5041286;28;20047;-77
2023/02/01 08:30:16;;;;;;;24.03;4.60;;;;;;;;;;5040981;28;20373;-78
2023/02/01 08:32:42;;;;;;;26.50;4.60;;;;;;;;;;5044127;28;20080;-79
2023/02/01 08:35:10;;;;;;;21.17;4.57;;;;;;;;;;5026723;28;20442;-77
2023/02/01 08:37:37;;;;;;;32.07;4.50;;;;;;;;;;5031491;28;21718;-78
2023/02/01 08:40:03;;;;;;;21.00;3.77;;;;;;;;;;5040049;28;20636;-78
2023/02/01 08:45:14;;;;;;;25.07;5.37;;;;;;;;;;5031812;28;20048;-78
2023/02/01 08:47:40;;;;;;;19.83;4.47;;;;;;;;;;5048070;28;20037;-78
2023/02/01 08:50:06;;;;;;;24.03;4.70;;;;;;;;;;5040248;28;20091;-77
2023/02/01 08:52:32;;;;;;;27.43;5.10;;;;;;;;;;5029294;28;20129;-79
2023/02/01 08:54:58;;;;;;;21.00;3.87;;;;;;;;;;5045460;28;20053;-78
2023/02/01 08:57:24;;;;;;;19.30;4.33;;;;;;;;;;5034108;28;20466;-77
2023/02/01 08:59:50;;;;;;;33.67;5.70;;;;;;;;;;5043448;28;20065;-77
2023/02/01 09:02:17;;;;;;;19.03;4.37;;;;;;;;;;5062035;28;20029;-77
2023/02/01 09:04:43;;;;;;;20.53;4.47;;;;;;;;;;5050652;28;20526;-79
2023/02/01 09:07:10;;;;;;;22.47;4.77;;;;;;;;;;5049563;28;20072;-76
2023/02/01 09:09:36;;;;;;;23.37;3.20;;;;;;;;;;5065437;28;20083;-77
2023/02/01 09:12:03;;;;;;;19.70;3.67;;;;;;;;;;5053260;28;20036;-77
2023/02/01 09:14:29;;;;;;;22.17;4.67;;;;;;;;;;5062587;28;20021;-78
2023/02/01 09:16:55;;;;;;;27.03;4.30;;;;;;;;;;5042561;28;20029;-79
2023/02/01 09:19:21;;;;;;;18.93;4.07;;;;;;;;;;5046540;28;20366;-77
2023/02/01 09:21:47;;;;;;;25.23;4.13;;;;;;;;;;5027001;28;20030;-78
2023/02/01 09:24:14;;;;;;;18.27;4.00;;;;;;;;;;5026192;28;20095;-78
2023/02/01 09:26:46;;;;;;;23.60;4.80;;;;;;;;;;5038199;28;20132;-78
2023/02/01 09:29:12;;;;;;;23.58;4.00;;;;;;;;;;5042354;28;20324;-79
2023/02/01 09:31:39;;;;;;;17.23;3.73;;;;;;;;;;5038792;28;20057;-79
2023/02/01 09:34:05;;;;;;;27.60;4.67;;;;;;;;;;5036022;28;20049;-77
2023/02/01 09:36:33;;;;;;;25.43;5.00;;;;;;;;;;5040736;28;20117;-80
2023/02/01 09:38:59;;;;;;;29.40;5.33;;;;;;;;;;5047078;28;20025;-79
2023/02/01 09:41:41;;;;;;;30.60;4.27;;;;;;;;;;5055325;28;20060;-78
2023/02/01 09:44:26;;;;;;;25.57;4.47;;;;;;;;;;5049444;28;20033;-78
2023/02/01 09:46:56;;;;;;;19.73;3.77;;;;;;;;;;5051585;28;20030;-79
2023/02/01 09:49:28;;;;;;;23.87;4.27;;;;;;;;;;5051170;28;20036;-77
2023/02/01 09:51:54;;;;;;;;;;;;;;;;;;5067611;28;20017;-77
2023/02/01 09:54:25;;;;;;;19.57;3.83;;;;;;;;;;5039060;28;19973;-79
2023/02/01 09:56:57;;;;;;;23.67;3.67;;;;;;;;;;5061435;28;20025;-80
2023/02/01 09:59:30;;;;;;;24.43;4.50;;;;;;;;;;5053340;28;20434;-78
2023/02/01 10:01:56;;;;;;;18.80;3.53;;;;;;;;;;5048516;28;20059;-80
2023/02/01 10:04:23;;;;;;;22.27;5.23;;;;;;;;;;5034971;28;20044;-79
2023/02/01 10:06:55;;;;;;;28.90;4.93;;;;;;;;;;5051372;28;20029;-80
2023/02/01 10:09:31;;;;;;;24.33;3.85;;;;;;;;;;5034000;28;20037;-80
2023/02/01 10:12:03;;;;;;;20.37;3.83;;;;;;;;;;5037753;28;20087;-79
2023/02/01 10:14:29;;;;;;;20.10;3.88;;;;;;;;;;5043641;28;20022;-80
2023/02/01 10:17:01;;;;;;;18.40;3.90;;;;;;;;;;5053210;28;20056;-78
2023/02/01 10:19:40;;;;;;;24.75;4.72;;;;;;;;;;5047877;28;20022;-79
2023/02/01 10:22:26;;;;;;;26.87;5.07;;;;;;;;;;5044732;28;20047;-78
2023/02/01 10:25:01;;;;;;;20.13;4.03;;;;;;;;;;5026160;28;20048;-78
2023/02/01 10:27:34;;;;;;;18.97;3.50;;;;;;;;;;5028230;28;20040;-80
2023/02/01 10:30:00;;;;;;;;;;;;;;;;;;5045241;28;20057;-78
2023/02/01 10:32:37;;;;;;;14.87;3.13;;;;;;;;;;5028658;28;19955;-77
2023/02/01 10:35:09;;;;;;;21.93;3.53;;;;;;;;;;5026412;28;20030;-76
2023/02/01 10:37:35;;;;;;;14.00;3.53;;;;;;;;;;5046294;28;20025;-78
2023/02/01 10:40:13;;;;;;;22.53;3.43;;;;;;;;;;5029605;28;20040;-78
2023/02/01 10:42:39;;;;;;;18.20;3.10;;;;;;;;;;5040771;28;21739;-78
2023/02/01 10:45:15;;;;;;;17.80;3.83;;;;;;;;;;5046160;28;20116;-79
2023/02/01 10:47:41;;;;;;;18.47;3.27;;;;;;;;;;5046511;28;20330;-78
2023/02/01 10:50:26;;;;;;;21.57;4.50;;;;;;;;;;5045774;28;20037;-76
2023/02/01 10:52:59;;;;;;;25.60;4.03;;;;;;;;;;5042463;28;20033;-77
2023/02/01 10:55:38;;;;;;;21.87;5.50;;;;;;;;;;5046284;28;20522;-78
2023/02/01 10:58:05;;;;;;;16.50;3.70;;;;;;;;;;5045067;28;20106;-79
2023/02/01 11:00:42;;;;;;;15.10;3.90;;;;;;;;;;5045155;28;20043;-78
2023/02/01 11:03:29;;;;;;;17.73;4.23;;;;;;;;;;5027420;28;20048;-78
2023/02/01 11:05:56;;;;;;;24.83;4.17;;;;;;;;;;5047976;28;20029;-79
2023/02/01 11:08:22;;;;;;;22.83;3.83;;;;;;;;;;5044736;28;20450;-77
2023/02/01 11:10:50;;;;;;;11.57;3.73;;;;;;;;;;5044600;28;20026;-76
2023/02/01 11:13:18;;;;;;;18.23;3.90;;;;;;;;;;5028337;28;20030;-78
2023/02/01 11:15:45;;;;;;;23.50;4.03;;;;;;;;;;5046105;28;20056;-78
2023/02/01 11:18:19;;;;;;;17.53;4.20;;;;;;;;;;5043918;28;20080;-78
2023/02/01 11:20:48;;;;;;;32.93;4.90;;;;;;;;;;5025672;28;20120;-78
2023/02/01 11:23:17;;;;;;;23.60;3.70;;;;;;;;;;5042880;28;20026;-77
2023/02/01 11:26:09;;;;;;;20.97;4.23;;;;;;;;;;5025075;28;20113;-76
2023/02/01 11:28:38;;;;;;;22.98;4.60;;;;;;;;;;5027527;28;20045;-78
2023/02/01 11:31:07;;;;;;;27.77;4.93;;;;;;;;;;5043422;28;20140;-78
2023/02/01 11:33:36;;;;;;;28.73;4.37;;;;;;;;;;5040322;28;20117;-77
2023/02/01 11:36:17;;;;;;;21.83;3.80;;;;;;;;;;5044960;28;20334;-78
2023/02/01 11:38:54;;;;;;;14.87;3.50;;;;;;;;;;5041802;28;20034;-77
2023/02/01 11:41:27;;;;;;;19.60;4.13;;;;;;;;;;5047071;28;20033;-78
2023/02/01 11:44:00;;;;;;;22.87;4.03;;;;;;;;;;5044637;28;20120;-79
2023/02/01 11:46:31;;;;;;;18.00;3.43;;;;;;;;;;5042137;28;20053;-77
2023/02/01 11:48:58;;;;;;;23.00;4.07;;;;;;;;;;5047264;28;20075;-79
2023/02/01 11:51:27;;;;;;;17.17;3.23;;;;;;;;;;5042280;28;20033;-78
2023/02/01 11:53:56;;;;;;;23.50;5.63;;;;;;;;;;5046135;28;20033;-78
2023/02/01 11:56:24;;;;;;;20.27;3.60;;;;;;;;;;5041336;28;20065;-77
2023/02/01 11:59:09;;;;;;;24.77;4.83;;;;;;;;;;5040710;28;20041;-80
2023/02/01 12:01:35;;;;;;;22.50;4.57;;;;;;;;;;5043062;28;20053;-79
2023/02/01 12:04:05;;;;;;;21.90;4.47;;;;;;;;;;5038907;28;20044;-79
2023/02/01 12:06:46;;;;;;;25.67;5.23;;;;;;;;;;5042922;28;20029;-79
2023/02/01 12:09:19;;;;;;;24.63;4.40;;;;;;;;;;5042720;28;20110;-78
2023/02/01 12:11:45;;;;;;;16.57;3.37;;;;;;;;;;5043880;28;20021;-78
2023/02/01 12:14:19;;;;;;;19.30;3.73;;;;;;;;;;5043235;28;20033;-77
2023/02/01 12:16:44;;;;;;;20.30;4.30;;;;;;;;;;5040893;28;20052;-78
2023/02/01 12:19:17;;;;;;;15.93;3.97;;;;;;;;;;5043518;28;20075;-78
2023/02/01 12:21:55;;;;;;;16.90;3.75;;;;;;;;;;5041848;28;20034;-79
2023/02/01 12:24:29;;;;;;;17.30;3.83;;;;;;;;;;5041951;28;20061;-77
2023/02/01 12:26:58;;;;;;;18.70;3.93;;;;;;;;;;5042738;28;20037;-77
2023/02/01 12:29:39;;;;;;;17.40;3.23;;;;;;;;;;5041184;28;20120;-77
2023/02/01 12:32:23;;;;;;;20.60;4.47;;;;;;;;;;5028305;28;20022;-78
2023/02/01 12:34:54;;;;;;;16.80;4.03;;;;;;;;;;5043222;28;20045;-79
2023/02/01 12:37:24;;;;;;;18.30;3.50;;;;;;;;;;5040495;28;20089;-78
2023/02/01 12:39:55;;;;;;;23.53;3.63;;;;;;;;;;5043170;28;20040;-78
2023/02/01 12:42:27;;;;;;;20.53;4.20;;;;;;;;;;5040431;28;20029;-79
2023/02/01 12:44:56;;;;;;;24.50;4.10;;;;;;;;;;5026232;28;20041;-78
2023/02/01 12:47:26;;;;;;;14.10;3.43;;;;;;;;;;5040024;28;20117;-78
2023/02/01 12:50:02;;;;;;;18.37;4.23;;;;;;;;;;5043285;28;20041;-78
2023/02/01 12:52:36;;;;;;;19.97;3.77;;;;;;;;;;5043313;28;20021;-77
2023/02/01 12:55:06;;;;;;;19.63;4.23;;;;;;;;;;5024388;28;20025;-77
2023/02/01 12:57:34;;;;;;;20.57;4.13;;;;;;;;;;5042807;28;20079;-79
2023/02/01 13:00:05;;;;;;;22.67;3.90;;;;;;;;;;5044067;28;20033;-78
2023/02/01 13:02:36;;;;;;;21.40;3.60;;;;;;;;;;5041093;28;20087;-77
2023/02/01 13:05:18;;;;;;;15.27;3.53;;;;;;;;;;5041250;28;20028;-77
2023/02/01 13:07:47;;;;;;;18.20;3.58;;;;;;;;;;5041709;28;20092;-78
2023/02/01 13:10:13;;;;;;;13.50;2.93;;;;;;;;;;5043844;28;20033;-77
2023/02/01 13:12:59;;;;;;;21.57;4.37;;;;;;;;;;5044983;28;20052;-76
2023/02/01 13:15:25;;;;;;;15.40;2.93;;;;;;;;;;5042098;28;20036;-77
2023/02/01 13:17:55;;;;;;;20.57;3.43;;;;;;;;;;5043251;28;20037;-78
2023/02/01 13:20:32;;;;;;;14.20;3.07;;;;;;;;;;5039648;28;20444;-78
2023/02/01 13:23:04;;;;;;;13.57;3.57;;;;;;;;;;5039300;28;20049;-78
2023/02/01 13:25:40;;;;;;;21.80;3.57;;;;;;;;;;5043189;28;20034;-77
2023/02/01 13:28:23;;;;;;;20.40;3.00;;;;;;;;;;5041634;28;20033;-78
2023/02/01 13:31:08;;;;;;;13.30;3.38;;;;;;;;;;5041728;28;20040;-77
2023/02/01 13:33:59;;;;;;;14.90;3.17;;;;;;;;;;5040927;28;20064;-78
2023/02/01 13:36:35;;;;;;;14.00;3.03;;;;;;;;;;5042347;28;20030;-76
2023/02/01 13:39:10;;;;;;;20.07;3.00;;;;;;;;;;5040241;28;20045;-77
2023/02/01 13:41:57;;;;;;;20.50;3.23;;;;;;;;;;5043176;28;20029;-78
2023/02/01 13:44:31;;;;;;;14.40;2.90;;;;;;;;;;5028348;28;20056;-79
2023/02/01 13:46:58;;;;;;;12.97;2.40;;;;;;;;;;5048086;28;20130;-78
2023/02/01 13:49:30;;;;;;;14.63;3.30;;;;;;;;;;5045556;28;20056;-79
2023/02/01 13:51:57;;;;;;;20.13;3.23;;;;;;;;;;5027278;28;20033;-78
2023/02/01 13:54:34;;;;;;;17.83;3.47;;;;;;;;;;5042495;28;20056;-79
2023/02/01 14:00:22;;;;;;;14.77;3.63;;;;;;;;;;5029394;28;20040;-78
2023/02/01 14:02:52;;;;;;;18.27;3.50;;;;;;;;;;5044384;28;20805;-76
2023/02/01 14:05:24;;;;;;;25.63;3.80;;;;;;;;;;5046974;28;20049;-77
2023/02/01 14:08:09;;;;;;;12.88;3.25;;;;;;;;;;5044095;28;20891;-76
2023/02/01 14:10:47;;;;;;;11.27;2.60;;;;;;;;;;5043330;28;20122;-77
2023/02/01 14:13:22;;;;;;;15.00;2.90;;;;;;;;;;5029296;28;20029;-78
2023/02/01 14:16:11;;;;;;;16.43;3.60;;;;;;;;;;5044683;28;20044;-78
2023/02/01 14:18:37;;;;;;;18.90;3.07;;;;;;;;;;5042568;28;20061;-78
2023/02/01 14:21:15;;;;;;;15.90;2.97;;;;;;;;;;5043198;28;20076;-79
2023/02/01 14:23:43;;;;;;;16.00;3.60;;;;;;;;;;5045763;28;20098;-76
2023/02/01 14:26:13;;;;;;;16.77;3.37;;;;;;;;;;5044137;28;20025;-78
2023/02/01 14:28:41;;;;;;;13.37;2.90;;;;;;;;;;5044450;28;20447;-79
2023/02/01 14:31:36;;;;;;;17.80;3.13;;;;;;;;;;5045870;28;20049;-78
2023/02/01 14:34:12;;;;;;;18.53;2.70;;;;;;;;;;5025242;28;20052;-77
2023/02/01 14:36:43;;;;;;;15.93;2.90;;;;;;;;;;5028126;28;20378;-77
2023/02/01 14:39:19;;;;;;;15.53;2.70;;;;;;;;;;5045411;28;20029;-77
2023/02/01 14:41:49;;;;;;;13.27;3.00;;;;;;;;;;5043342;28;20048;-77
2023/02/01 14:44:23;;;;;;;18.00;3.10;;;;;;;;;;5058405;28;20052;-77
2023/02/01 14:47:08;;;;;;;14.13;2.93;;;;;;;;;;5063989;28;20028;-78
2023/02/01 14:49:48;;;;;;;27.10;4.10;;;;;;;;;;5032944;28;20374;-77
2023/02/01 14:52:16;;;;;;;17.40;3.67;;;;;;;;;;5049253;28;20029;-79
2023/02/01 14:54:45;;;;;;;14.50;2.83;;;;;;;;;;5068823;28;20124;-78
2023/02/01 14:57:14;;;;;;;17.80;3.10;;;;;;;;;;5069155;28;20040;-79
2023/02/01 14:59:41;;;;;;;18.80;3.57;;;;;;;;;;5036350;28;20454;-76
2023/02/01 15:02:18;;;;;;;18.77;3.87;;;;;;;;;;5036297;28;20452;-79
2023/02/01 15:04:44;;;;;;;15.40;3.10;;;;;;;;;;5056266;28;20071;-79
2023/02/01 15:07:16;;;;;;;12.47;2.97;;;;;;;;;;5045374;28;20029;-78
2023/02/01 15:09:46;;;;;;;13.87;2.97;;;;;;;;;;5046859;28;20025;-78
2023/02/01 15:12:14;;;;;;;13.27;2.80;;;;;;;;;;5042993;28;20082;-78
2023/02/01 15:15:00;;;;;;;13.17;2.87;;;;;;;;;;5046332;28;20033;-77
2023/02/01 15:17:33;;;;;;;12.63;2.67;;;;;;;;;;5036704;28;20034;-79
2023/02/01 15:20:00;;;;;;;13.13;2.73;;;;;;;;;;5035968;28;20044;-78